Jorge Blanco

Olheiro - Athletic Bilbao
23 Abr 2028
Domingo
Processo

Personalidade

Adaptabilidade (6) Ambição (1) Controvérsia (4) Lealdade (12) Pressão (15) Profissionalismo (5) Espírito Esportivo (10) Temperamento (13)

Perfil

Estilo de Treinamento Democrático
Licença Continental B
Determinação 14
Gestão de Pessoas 6
Motivação 11
Disciplina 9
Satisfação no Trabalho
100%
Fadiga
0%
Função Olheiro
Salário 47.7K p/s
Contrato 14.03.2029

Desempenho

Comportamento Bom
Eficácia do Treinamento
59%
Desenvolvimento do Jogador
60%
Prevenção de Lesões
35%
Implementação Tática
75%

Eventos Recentes

Participou de uma reunião de recrutamento agora
Participou de uma reunião de recrutamento agora
Participou de uma reunião de recrutamento agora
Participou de uma reunião de recrutamento agora
Participou de uma reunião de recrutamento 7d atrás
Participou de uma reunião de recrutamento 7d atrás
Participou de uma reunião de recrutamento 7d atrás
Observou uma partida 7d atrás

Monitorando agora

121
Jogador Clube Status Habilidade Confiança Observado Última observação Último voto
Aïssa Mandi Levante Relatório pronto 122 / 125 76% 1 10.01.2028 -
Kauã Moraes Flamengo Ativo 123 / 129 40% 1 10.01.2028 -
Siyabonga Mabena Bidvest Wits Ativo 131 / 128 40% 1 10.01.2028 -
Alex Verón Vélez Ativo 107 / 121 40% 1 10.01.2028 -
Jeremías Merlo Gimnasia La Plata Ativo 130 / 127 40% 1 31.12.2027 -
Tomás Parmo Independiente Ativo 123 / 134 40% 1 31.12.2027 -
Matias Siltanen Malmo FF Ativo 127 / 132 40% 1 31.12.2027 -
Assane Diao Como Ativo 144 / 152 40% 12 22.06.2027 -
Mateus Mané Burnley Ativo 134 / 141 40% 6 22.06.2027 -
Nikolaus Wurmbrand Girona Ativo 123 / 125 40% 1 22.06.2027 -
Nestory Irankunda Watford Ativo 123 / 121 40% 1 15.06.2027 -
Fermín Barcelona Ativo 159 / 158 72% 1 01.06.2027 -
Jorrel Hato Chelsea Ativo 148 / 158 40% 7 31.05.2027 -
Toni Tamarit Alverca Ativo 121 / 121 40% 6 31.05.2027 -
Bazoumana Touré Newcastle United Ativo 137 / 147 40% 2 31.05.2027 -
Jesús Rodríguez Como Ativo 144 / 143 40% 1 30.05.2027 -
Samuel Lucero Defensa y Justicia Ativo 112 / 117 40% 1 28.05.2027 -
Sascha Britschgi AC Milan Ativo 121 / 131 40% 1 28.05.2027 -
Sindre Walle Egeli Udinese Ativo 131 / 132 40% 6 26.05.2027 -
Yusi Alavés Ativo 127 / 135 40% 5 26.05.2027 -
Ollie Scarles West Ham United Ativo 136 / 130 40% 8 24.05.2027 -
Victor Hernandez Santa Fe Ativo 120 / 127 40% 1 24.05.2027 -
Eliás Montiel Borussia Dortmund Ativo 126 / 134 40% 2 21.05.2027 -
Eduardo Lozano Botafogo Ativo 149 / 154 40% 7 20.05.2027 -
Sam Amo-Ameyaw RC Strasbourg Ativo 129 / 132 40% 3 18.05.2027 -
Senny Mayulu Paris Saint-Germain Ativo 139 / 151 40% 5 18.05.2027 -
Sayed Abu Farchi Maccabi Tel Aviv Ativo 127 / 131 40% 2 17.05.2027 -
Finn Jeltsch VfB Stuttgart Ativo 130 / 136 40% 1 17.05.2027 -
Edmund Baidoo St. Gallen Ativo 123 / 124 40% 1 17.05.2027 -
Jones El-Abdellaoui Celta Ativo 122 / 134 40% 4 16.05.2027 -
Sidiki Chérif Newcastle United Ativo 122 / 137 40% 2 16.05.2027 -
Josh King Newcastle United Ativo 133 / 146 40% 1 15.05.2027 -
William Gomes Porto Ativo 143 / 146 40% 6 12.05.2027 -
Luís Guilherme Sporting CP Ativo 129 / 133 40% 2 12.05.2027 -
Romelle Donovan Brentford Ativo 119 / 131 40% 1 12.05.2027 -
Cheveyo Tsawa Club Brugge Ativo 122 / 124 40% 1 11.05.2027 -
Samir El Mourabet RC Strasbourg Ativo 127 / 132 40% 1 11.05.2027 -
Ethan Williams Peterborough United Ativo 115 / 118 40% 5 08.05.2027 -
Mohamadou Kanté Crawley Town Ativo 118 / 127 40% 4 05.05.2027 -
Oscar Schwartau Norwich City Ativo 118 / 125 40% 1 05.05.2027 -
Matvii Ponomarenko Dynamo Kyiv Ativo 122 / 121 40% 1 03.05.2027 -
Kirill Glebov CSKA Moscow Ativo 122 / 134 40% 4 02.05.2027 -
Caleb Yirenkyi Coventry City Ativo 132 / 140 40% 1 01.05.2027 -
Jonathan Asp-Jensen Deportivo La Coruña Ativo 126 / 132 40% 1 30.04.2027 -
Lucas Høgsberg RC Strasbourg Ativo 134 / 138 40% 1 30.04.2027 -
Othmane Maamma Watford Ativo 125 / 124 40% 1 28.04.2027 -
Yussif Saidu Zaragoza Ativo 117 / 121 40% 1 27.04.2027 -
Agustín Ruberto River Plate Ativo 127 / 130 40% 2 23.04.2027 -
Mikel Gogorza Brondby Ativo 130 / 132 40% 3 23.04.2027 -
Ryan Oné Sheffield United Ativo 106 / 115 40% 1 23.04.2027 -
James Bacca La Equidad Ativo 120 / 138 40% 1 21.04.2027 -
Chemsdine Talbi Sunderland Ativo 146 / 143 40% 5 20.04.2027 -
Kenan Yıldız Juventus Ativo 162 / 164 40% 6 18.04.2027 Observar
Amaury Morales Leon Ativo 114 / 122 40% 2 18.04.2027 -
Leo Castledine Middlesbrough Ativo 131 / 127 40% 4 16.04.2027 -
Mathys Tel Tottenham Ativo 147 / 145 40% 5 16.04.2027 -
Carlos Espí Real Madrid Ativo 127 / 131 40% 2 12.04.2027 -
Salvador Blopá Sporting CP Ativo 121 / 122 40% 2 10.04.2027 -
David Mella Deportivo La Coruña Ativo 124 / 136 40% 1 10.04.2027 -
Louis Leroux FC Nantes Ativo 132 / 127 40% 1 09.04.2027 -
Kobbie Mainoo Manchester United Ativo 145 / 153 40% 1 05.04.2027 -
Joel Orlando Almagro Ativo 121 / 113 40% 1 04.04.2027 -
Will Lankshear Middlesbrough Ativo 123 / 121 40% 1 04.04.2027 -
Gianluca Prestianni Benfica Ativo 134 / 133 40% 3 29.03.2027 -
Antoni Milambo Brentford Ativo 142 / 144 40% 1 27.03.2027 -
Jeff Ekhator Juventus Ativo 135 / 130 40% 3 26.03.2027 -
Jonás Luna Wanderers Ativo 120 / 130 40% 2 23.03.2027 -
Rocco Vata Watford Ativo 115 / 121 40% 3 22.03.2027 -
Lovro Zvonarek Estrela da Amadora Ativo 128 / 125 40% 1 22.03.2027 -
Jan Virgili Club Brugge Ativo 128 / 139 40% 1 06.03.2027 -
Nico O'Reilly Manchester City Ativo 159 / 161 40% 1 04.03.2027 -
Xavier Biscayzacú Defensor Sporting Ativo 125 / 129 40% 1 01.03.2027 -
Boubacar Kamara Aston Villa Ativo 167 / 169 40% 6 28.12.2026 -
Amadou Onana Aston Villa Ativo 150 / 160 40% 5 28.12.2026 -
Eduardo Camavinga Real Madrid Ativo 171 / 160 40% 4 28.12.2026 -
Johnny Cardoso Atlético Madrid Ativo 149 / 151 40% 8 27.12.2026 -
Ilaix Moriba Celta Ativo 154 / 147 40% 5 27.12.2026 -
Moisés Caicedo Chelsea Ativo 164 / 174 40% 6 26.12.2026 -
João Neves Paris Saint-Germain Ativo 172 / 171 40% 3 26.12.2026 -
Gavi Barcelona Ativo 150 / 160 40% 5 25.12.2026 -
Tyler Adams Bournemouth Ativo 154 / 148 40% 3 25.12.2026 -
Carlos Romero Villarreal Ativo 144 / 150 40% 4 25.12.2026 -
Willian Pacho Paris Saint-Germain Ativo 164 / 159 40% 1 23.12.2026 Mais informações
Adam Wharton Crystal Palace Ativo 151 / 149 40% 3 17.12.2026 -
Pablo Barrios Atlético Madrid Ativo 159 / 153 40% 1 17.12.2026 -
Alexis Mac Allister Liverpool Ativo 156 / 161 40% 6 14.12.2026 -
Tino Livramento Newcastle United Ativo 156 / 153 40% 3 14.12.2026 -
Pape Guèye Villarreal Ativo 157 / 155 40% 2 14.12.2026 -
Pedri Barcelona Ativo 180 / 179 40% 6 12.12.2026 -
Cristian Uribe Monaco Ativo 153 / 146 40% 6 08.12.2026 -
Ryan Gravenberch Liverpool Ativo 159 / 161 40% 4 06.12.2026 -
Dominik Szoboszlai Liverpool Ativo 169 / 159 40% 4 05.12.2026 -
Quinten Timber Crystal Palace Ativo 150 / 144 40% 1 04.12.2026 -
James Garner Everton Ativo 148 / 145 40% 2 29.11.2026 -
Vitinha Paris Saint-Germain Ativo 175 / 183 40% 2 29.11.2026 -
Elliot Anderson Manchester City Ativo 149 / 158 40% 2 27.11.2026 -
Joško Gvardiol Manchester City Ativo 159 / 158 40% 1 27.11.2026 Mais informações
Alex Scott Bournemouth Ativo 153 / 152 40% 2 19.11.2026 -
Mats Wieffer Brighton Ativo 148 / 150 40% 2 13.11.2026 -
William Saliba Arsenal Ativo 173 / 169 40% 4 11.11.2026 -
Sergi Cardona KAA Gent Ativo 145 / 150 40% 1 03.11.2026 -
Aurélien Tchouaméni Real Madrid Ativo 173 / 173 40% 5 29.10.2026 Observar
Jarrad Branthwaite Everton Ativo 153 / 153 40% 2 28.10.2026 -
Miloš Kerkez Liverpool Ativo 147 / 154 40% 1 26.10.2026 -
Adrien Truffert Bournemouth Ativo 143 / 152 40% 1 26.10.2026 -
Maxence Lacroix Chelsea Ativo 143 / 151 40% 2 15.10.2026 -
Ousmane Diomande Nottingham Forest Ativo 146 / 151 40% 1 15.10.2026 -
Achraf Hakimi Paris Saint-Germain Ativo 181 / 182 40% 1 11.10.2026 -
Wesley Fofana Chelsea Ativo 159 / 164 40% 3 09.10.2026 -
Jules Koundé Barcelona Ativo 161 / 154 40% 1 09.10.2026 -
Eric García Barcelona Ativo 165 / 153 40% 4 04.10.2026 -
Sven Botman Newcastle United Ativo 163 / 157 40% 1 03.10.2026 -
Micky van de Ven Tottenham Ativo 152 / 155 40% 1 01.10.2026 -
Trent Alexander-Arnold Real Madrid Ativo 154 / 159 40% 1 29.09.2026 -
Florian Wirtz Liverpool Ativo 167 / 165 40% 1 21.09.2026 -
Óscar Mingueza Crystal Palace Ativo 142 / 144 40% 1 17.09.2026 -
Ibrahima Konaté Real Madrid Ativo 158 / 164 40% 1 16.09.2026 -
Julián Álvarez Atlético Madrid Ativo 177 / 168 40% 1 14.09.2026 -
Matthijs de Ligt Manchester United Ativo 161 / 154 40% 1 11.09.2026 -
Enzo Fernández Manchester City Ativo 166 / 168 40% 1 09.09.2026 -
Ilyas Ansah Hull City Ativo 133 / 128 40% 1 17.08.2026 -